Time;durP1;ratioP1;P1;durP2;ratioP2;P2;SDS_P1;SDS_P2;PMS_P1;PMS_P2;Temp;Humidity;BMP_temperature;BMP_pressure;BME280_temperature;BME280_humidity;BME280_pressure;Samples;Min_cycle;Max_cycle;Signal;HPM_P1;HPM_P2
2022/09/02 00:01:36;;;;;;;6.97;3.60;;;;;;;18.26;64.91;100318.19;5016536;28;20030;-74
2022/09/02 00:04:15;;;;;;;3.88;2.78;;;;;;;18.28;64.86;100321.44;5018261;28;20026;-74
2022/09/02 00:06:42;;;;;;;5.20;3.05;;;;;;;18.18;64.56;100305.94;5020037;28;20043;-73
2022/09/02 00:09:10;;;;;;;5.05;3.08;;;;;;;18.17;65.71;100315.38;5008504;28;20041;-73
2022/09/02 00:11:38;;;;;;;5.78;2.60;;;;;;;18.12;65.72;100318.28;5000576;28;20026;-74
2022/09/02 00:14:07;;;;;;;3.03;2.20;;;;;;;18.05;65.56;100320.72;5017807;28;20091;-76
2022/09/02 00:16:33;;;;;;;4.03;2.65;;;;;;;18.01;65.69;100311.41;5017412;28;20025;-73
2022/09/02 00:19:01;;;;;;;3.33;2.78;;;;;;;17.98;66.20;100320.38;5018430;28;20033;-75
2022/09/02 00:21:27;;;;;;;2.05;1.52;;;;;;;17.97;65.57;100316.75;5002391;28;20038;-74
2022/09/02 00:23:53;;;;;;;3.53;2.03;;;;;;;17.92;66.24;100312.19;5018812;28;20092;-75
2022/09/02 00:26:19;;;;;;;1.77;1.63;;;;;;;17.91;66.00;100310.53;5019418;28;20056;-74
2022/09/02 00:28:45;;;;;;;4.40;2.67;;;;;;;17.88;66.51;100307.59;5018357;28;20026;-75
2022/09/02 00:31:13;;;;;;;5.25;2.00;;;;;;;17.93;66.02;100313.81;5005564;28;20106;-75
2022/09/02 00:33:38;;;;;;;4.25;1.83;;;;;;;17.84;66.55;100318.44;5016368;28;20040;-76
2022/09/02 00:36:04;;;;;;;3.38;1.45;;;;;;;17.74;66.30;100314.03;4985641;28;20539;-78
2022/09/02 00:38:34;;;;;;;2.05;1.50;;;;;;;17.69;67.16;100307.81;5021903;28;20030;-74
2022/09/02 00:41:02;;;;;;;2.28;1.70;;;;;;;17.63;66.92;100302.41;5008622;28;20360;-74
2022/09/02 00:43:52;;;;;;;7.82;2.20;;;;;;;17.59;67.51;100306.94;5005004;28;20120;-75
2022/09/02 00:46:20;;;;;;;3.20;2.53;;;;;;;17.63;67.89;100309.88;4991629;28;20549;-75
2022/09/02 00:48:57;;;;;;;6.95;2.35;;;;;;;17.62;67.52;100300.78;5027617;28;20034;-74
2022/09/02 00:51:25;;;;;;;5.53;2.15;;;;;;;17.56;67.64;100296.50;5014742;28;20029;-73
2022/09/02 00:53:50;;;;;;;3.63;2.58;;;;;;;17.54;67.99;100287.72;4998804;28;20022;-74
2022/09/02 00:56:21;;;;;;;3.05;2.08;;;;;;;17.54;67.87;100287.72;5014597;28;20071;-74
2022/09/02 00:58:50;;;;;;;5.47;2.80;;;;;;;17.59;67.69;100290.34;5035901;28;20033;-74
2022/09/02 01:01:17;;;;;;;5.90;3.50;;;;;;;17.65;68.53;100284.69;5035291;28;20386;-73
2022/09/02 01:03:42;;;;;;;4.65;2.45;;;;;;;17.70;68.35;100282.59;5028198;28;20443;-73
2022/09/02 01:06:14;;;;;;;4.72;2.95;;;;;;;17.70;68.23;100279.03;5047371;28;20146;-72
2022/09/02 01:08:44;;;;;;;3.20;2.50;;;;;;;17.61;67.96;100276.22;5044704;28;20052;-74
2022/09/02 01:11:11;;;;;;;3.20;2.60;;;;;;;17.53;68.74;100280.56;5034510;28;20068;-70
2022/09/02 01:13:40;;;;;;;9.05;3.15;;;;;;;17.52;68.97;100273.41;5035589;28;20132;-72
2022/09/02 01:16:29;;;;;;;5.28;2.53;;;;;;;17.50;68.66;100274.84;5038001;28;20021;-72
2022/09/02 01:18:59;;;;;;;5.40;3.10;;;;;;;17.48;68.59;100271.56;5036630;28;20029;-71
2022/09/02 01:21:25;;;;;;;4.45;2.42;;;;;;;17.46;69.15;100277.41;5031911;28;20037;-72
2022/09/02 01:23:51;;;;;;;4.30;2.20;;;;;;;17.48;68.82;100283.47;5050653;28;20053;-72
2022/09/02 01:26:18;;;;;;;3.85;2.08;;;;;;;17.40;68.71;100275.91;5047250;28;20021;-74
2022/09/02 01:28:43;;;;;;;3.08;2.17;;;;;;;17.38;68.75;100275.44;5035816;28;20036;-72
2022/09/02 01:31:09;;;;;;;2.58;2.00;;;;;;;17.38;69.08;100272.66;5037451;28;20033;-73
2022/09/02 01:33:34;;;;;;;4.13;2.17;;;;;;;17.37;69.60;100271.84;5037690;28;20041;-73
2022/09/02 01:36:02;;;;;;;2.50;1.63;;;;;;;17.34;69.15;100266.13;5040301;28;20350;-72
2022/09/02 01:38:28;;;;;;;2.13;1.65;;;;;;;17.30;69.41;100267.91;5035037;28;20032;-74
2022/09/02 01:40:54;;;;;;;2.03;1.50;;;;;;;17.34;68.96;100271.66;5034278;28;20021;-73
2022/09/02 01:43:24;;;;;;;1.98;1.77;;;;;;;17.35;69.63;100273.31;5030294;28;20128;-72
2022/09/02 01:45:52;;;;;;;2.00;1.77;;;;;;;17.35;69.68;100265.00;5033266;28;20028;-72
2022/09/02 01:48:19;;;;;;;3.78;2.38;;;;;;;17.33;69.45;100261.72;5026462;28;20068;-72
2022/09/02 01:50:49;;;;;;;4.13;2.50;;;;;;;17.26;69.64;100265.75;5039739;28;20444;-72
2022/09/02 01:53:15;;;;;;;4.30;2.28;;;;;;;17.26;70.06;100265.75;5033982;28;20028;-72
2022/09/02 01:55:40;;;;;;;3.45;2.40;;;;;;;17.27;69.92;100261.88;5034048;28;20053;-72
2022/09/02 01:58:06;;;;;;;4.97;2.50;;;;;;;17.31;69.47;100259.28;5014291;28;20026;-71
2022/09/02 02:00:32;;;;;;;2.75;1.73;;;;;;;17.32;69.97;100258.16;5005595;28;20353;-71
2022/09/02 02:02:57;;;;;;;2.47;1.95;;;;;;;17.32;69.52;100252.63;5011831;28;20057;-70
2022/09/02 02:05:22;;;;;;;2.20;1.80;;;;;;;17.32;69.42;100246.28;5019430;28;20132;-71
2022/09/02 02:07:48;;;;;;;2.60;2.20;;;;;;;17.33;69.86;100247.91;4997738;28;20049;-72
2022/09/02 02:10:15;;;;;;;4.43;1.90;;;;;;;17.36;69.89;100252.81;4990863;28;20022;-72
2022/09/02 02:12:41;;;;;;;4.60;2.22;;;;;;;17.30;69.92;100243.81;4997836;28;20025;-72
2022/09/02 02:15:10;;;;;;;4.40;3.17;;;;;;;17.27;70.13;100245.31;5011184;28;20099;-71
2022/09/02 02:17:36;;;;;;;4.22;2.72;;;;;;;17.22;70.14;100237.13;5012540;28;20026;-72
2022/09/02 02:20:02;;;;;;;3.15;2.60;;;;;;;17.19;70.21;100232.22;5011522;28;20365;-72
2022/09/02 02:22:28;;;;;;;4.97;2.70;;;;;;;17.16;70.52;100232.06;5014033;28;20042;-72
2022/09/02 02:24:53;;;;;;;3.28;2.30;;;;;;;17.11;70.31;100224.69;5007541;28;20030;-71
2022/09/02 02:27:20;;;;;;;3.28;2.72;;;;;;;17.08;70.64;100230.84;4996225;28;20038;-72
2022/09/02 02:29:46;;;;;;;4.68;3.58;;;;;;;17.00;70.82;100212.28;5006335;28;20066;-72
2022/09/02 02:32:12;;;;;;;5.88;2.90;;;;;;;17.01;70.62;100220.25;4998905;28;20021;-71
2022/09/02 02:34:38;;;;;;;3.92;3.10;;;;;;;17.00;71.50;100217.81;4999183;28;20034;-72
2022/09/02 02:37:04;;;;;;;7.15;3.80;;;;;;;17.01;71.33;100220.25;4996323;28;20539;-72
2022/09/02 02:39:29;;;;;;;3.90;2.75;;;;;;;17.02;71.22;100221.06;4999273;28;20060;-71
2022/09/02 02:41:55;;;;;;;4.63;2.72;;;;;;;17.04;71.29;100229.84;4991852;28;20029;-71
2022/09/02 02:44:20;;;;;;;5.22;2.90;;;;;;;17.07;71.31;100223.72;5005432;28;20026;-72
2022/09/02 02:46:46;;;;;;;3.67;2.80;;;;;;;17.10;71.05;100220.31;4997341;28;20028;-72
2022/09/02 02:49:11;;;;;;;3.28;2.50;;;;;;;17.13;71.28;100227.97;5002270;28;20033;-71
2022/09/02 02:51:37;;;;;;;4.22;2.65;;;;;;;17.15;70.75;100222.94;5008693;28;20049;-71
2022/09/02 02:54:03;;;;;;;3.28;2.13;;;;;;;17.20;70.75;100217.28;4990003;28;20066;-71
2022/09/02 02:56:29;;;;;;;3.78;2.70;;;;;;;17.27;70.63;100223.19;5031886;28;20053;-72
2022/09/02 02:58:56;;;;;;;4.07;2.70;;;;;;;17.37;70.61;100215.75;5016343;28;20025;-72
2022/09/02 03:01:22;;;;;;;3.60;2.35;;;;;;;17.49;69.92;100217.94;5033412;28;20048;-72
2022/09/02 03:03:48;;;;;;;3.42;2.58;;;;;;;17.60;70.35;100214.56;5035740;28;20108;-71
2022/09/02 03:06:13;;;;;;;3.92;2.65;;;;;;;17.73;69.78;100214.78;5036823;28;20493;-72
2022/09/02 03:08:39;;;;;;;4.50;2.72;;;;;;;17.73;69.39;100212.03;5040796;28;20021;-72
2022/09/02 03:11:05;;;;;;;4.80;3.00;;;;;;;17.74;70.03;100211.72;5037980;28;20018;-72
2022/09/02 03:13:33;;;;;;;3.72;2.20;;;;;;;17.75;69.60;100215.28;5024572;28;20022;-72
2022/09/02 03:15:59;;;;;;;2.88;2.25;;;;;;;17.77;69.85;100210.22;5037633;28;20406;-72
2022/09/02 03:18:24;;;;;;;3.13;2.13;;;;;;;17.81;69.65;100211.22;5036809;28;20025;-71
2022/09/02 03:20:50;;;;;;;6.70;2.10;;;;;;;17.81;69.44;100208.47;5020298;28;20059;-71
2022/09/02 03:23:17;;;;;;;3.15;2.40;;;;;;;17.77;69.19;100202.78;5036573;28;20581;-73
2022/09/02 03:25:44;;;;;;;6.35;2.47;;;;;;;17.70;69.46;100196.88;5035886;28;20022;-74
2022/09/02 03:28:10;;;;;;;4.40;2.70;;;;;;;17.71;70.13;100197.69;5040916;28;20088;-71
2022/09/02 03:30:37;;;;;;;3.88;2.70;;;;;;;17.64;70.40;100192.63;5037940;28;20026;-72
2022/09/02 03:33:04;;;;;;;4.13;2.53;;;;;;;17.62;70.23;100198.50;5034950;28;20120;-72
2022/09/02 03:35:31;;;;;;;4.88;2.70;;;;;;;17.62;70.41;100195.72;5035399;28;20132;-71
2022/09/02 03:37:58;;;;;;;3.72;2.70;;;;;;;17.58;70.39;100200.25;5035993;28;20116;-72
2022/09/02 03:40:26;;;;;;;5.07;2.50;;;;;;;17.53;70.15;100192.09;5037718;28;20100;-71
2022/09/02 03:42:52;;;;;;;5.30;2.25;;;;;;;17.45;70.24;100188.16;5049606;28;20036;-71
2022/09/02 03:45:19;;;;;;;3.67;2.00;;;;;;;17.35;70.63;100190.41;5040992;28;20029;-70
2022/09/02 03:47:53;;;;;;;3.03;2.20;;;;;;;17.21;71.09;100196.81;5038246;28;20036;-71
2022/09/02 03:50:26;;;;;;;3.95;2.20;;;;;;;17.08;71.32;100193.00;5036449;28;20029;-71
2022/09/02 03:52:52;;;;;;;2.10;1.80;;;;;;;16.96;71.65;100195.50;5036713;28;20438;-71
2022/09/02 03:55:18;;;;;;;3.33;2.08;;;;;;;16.80;71.79;100189.53;5030625;28;20069;-71
2022/09/02 03:57:44;;;;;;;3.70;2.13;;;;;;;16.77;72.40;100198.44;5020597;28;20088;-72
2022/09/02 04:00:13;;;;;;;2.38;2.13;;;;;;;16.75;72.06;100189.66;5018386;28;20120;-72
2022/09/02 04:02:39;;;;;;;3.72;2.05;;;;;;;16.68;72.04;100183.75;5016748;28;20076;-72
2022/09/02 04:05:04;;;;;;;4.63;2.30;;;;;;;16.61;72.37;100178.66;4996986;28;20025;-72
2022/09/02 04:07:30;;;;;;;2.97;2.20;;;;;;;16.58;73.10;100174.56;5015073;28;20026;-72
2022/09/02 04:09:56;;;;;;;2.95;2.00;;;;;;;16.55;73.10;100180.72;4988175;28;20050;-72
2022/09/02 04:12:22;;;;;;;4.40;2.45;;;;;;;16.54;72.84;100184.63;4998012;28;20057;-71
2022/09/02 04:14:48;;;;;;;4.88;3.10;;;;;;;16.53;73.28;100174.72;5017950;28;20081;-71
2022/09/02 04:17:13;;;;;;;3.67;2.17;;;;;;;16.51;73.42;100182.47;4999577;28;20053;-72
2022/09/02 04:19:39;;;;;;;3.30;2.63;;;;;;;16.54;73.72;100168.06;5019294;28;20026;-72
2022/09/02 04:22:06;;;;;;;3.65;2.30;;;;;;;16.60;73.28;100177.03;5016304;28;20072;-72
2022/09/02 04:24:31;;;;;;;4.07;2.30;;;;;;;16.67;73.38;100179.34;5012652;28;20034;-72
2022/09/02 04:26:57;;;;;;;4.07;2.25;;;;;;;16.76;73.05;100174.72;5015336;28;20468;-71
2022/09/02 04:29:23;;;;;;;3.45;2.30;;;;;;;16.85;73.50;100170.09;4986532;28;20026;-73
2022/09/02 04:31:48;;;;;;;3.08;2.05;;;;;;;16.95;72.82;100170.97;5018438;28;20345;-72
2022/09/02 04:34:14;;;;;;;4.53;2.38;;;;;;;17.01;72.45;100169.72;4999186;28;20068;-72
2022/09/02 04:36:40;;;;;;;6.07;2.90;;;;;;;17.04;72.64;100164.38;5019008;28;20030;-72
2022/09/02 04:39:08;;;;;;;4.25;2.15;;;;;;;17.15;72.91;100170.44;5024200;28;20109;-70
2022/09/02 04:41:34;;;;;;;3.50;2.70;;;;;;;17.15;72.41;100164.91;5023147;28;20029;-72
2022/09/02 04:44:00;;;;;;;2.30;1.60;;;;;;;17.11;72.67;100166.69;5021487;28;20034;-71
2022/09/02 04:46:26;;;;;;;3.13;2.30;;;;;;;17.06;72.52;100164.88;5011770;28;20065;-71
2022/09/02 04:48:52;;;;;;;4.18;2.40;;;;;;;16.99;73.34;100158.16;4998893;28;20041;-71
2022/09/02 04:51:20;;;;;;;3.42;2.30;;;;;;;16.90;72.93;100160.88;4980024;28;20030;-71
2022/09/02 04:53:49;;;;;;;3.63;2.10;;;;;;;16.82;73.82;100159.66;5020865;28;20037;-72
2022/09/02 04:56:18;;;;;;;3.97;2.60;;;;;;;16.79;74.01;100163.03;4998797;28;20128;-73
2022/09/02 04:58:44;;;;;;;3.80;2.25;;;;;;;16.80;73.89;100159.16;5004532;28;20911;-73
2022/09/02 05:01:15;;;;;;;1.50;1.33;;;;;;;16.76;74.13;100158.13;5016519;28;20030;-72
2022/09/02 05:03:43;;;;;;;5.15;2.70;;;;;;;16.78;73.82;100157.81;5016552;28;20057;-71
2022/09/02 05:06:11;;;;;;;5.53;2.00;;;;;;;16.82;73.68;100156.06;4998472;28;20037;-70
2022/09/02 05:08:37;;;;;;;2.58;1.90;;;;;;;16.87;73.62;100148.50;5000438;28;20034;-71
2022/09/02 05:11:10;;;;;;;2.15;1.58;;;;;;;16.90;73.64;100158.91;5021090;28;20025;-70
2022/09/02 05:13:35;;;;;;;4.60;1.85;;;;;;;16.93;74.06;100152.75;5025124;28;20357;-70
2022/09/02 05:16:01;;;;;;;4.25;2.47;;;;;;;16.91;73.96;100148.72;5015315;28;20041;-71
2022/09/02 05:18:27;;;;;;;5.63;2.80;;;;;;;16.93;73.72;100152.75;4991542;28;20025;-71
2022/09/02 05:20:52;;;;;;;4.55;2.47;;;;;;;16.97;74.00;100154.88;4990528;28;20026;-71
2022/09/02 05:23:18;;;;;;;3.63;2.92;;;;;;;17.01;73.93;100153.13;4995812;28;20034;-71
2022/09/02 05:25:43;;;;;;;7.15;2.30;;;;;;;17.04;73.92;100152.50;4996817;28;20030;-72
2022/09/02 05:28:09;;;;;;;6.32;2.85;;;;;;;17.04;73.99;100153.34;5014918;28;20049;-71
2022/09/02 05:30:39;;;;;;;5.03;2.60;;;;;;;16.99;74.00;100160.94;5001252;28;20056;-72
2022/09/02 05:33:05;;;;;;;3.65;2.00;;;;;;;16.91;74.26;100157.78;5015459;28;20515;-71
2022/09/02 05:35:31;;;;;;;5.55;2.13;;;;;;;16.88;74.34;100155.66;4996297;28;20037;-70
2022/09/02 05:37:57;;;;;;;5.93;2.78;;;;;;;16.98;73.79;100160.13;4996521;28;20033;-71
2022/09/02 05:40:22;;;;;;;3.63;2.17;;;;;;;16.98;73.76;100151.00;4994684;28;20499;-70
2022/09/02 05:42:48;;;;;;;2.35;2.05;;;;;;;17.03;73.80;100153.66;4996795;28;20046;-70
2022/09/02 05:45:13;;;;;;;5.53;2.30;;;;;;;17.03;74.06;100161.94;4993906;28;20033;-72
2022/09/02 05:47:39;;;;;;;3.85;2.38;;;;;;;17.01;73.94;100166.94;5015367;28;20041;-71
2022/09/02 05:50:06;;;;;;;2.45;2.20;;;;;;;17.06;73.94;100166.81;4995916;28;20085;-73
2022/09/02 05:52:31;;;;;;;3.53;2.35;;;;;;;16.99;73.54;100160.94;4998723;28;20029;-72
2022/09/02 05:54:57;;;;;;;5.45;2.05;;;;;;;17.05;73.58;100176.25;5015373;28;20549;-71
2022/09/02 05:57:23;;;;;;;4.45;2.50;;;;;;;16.99;74.36;100160.94;5031223;28;20045;-72
2022/09/02 05:59:54;;;;;;;6.72;2.85;;;;;;;17.11;73.72;100169.44;5044662;28;20025;-71
2022/09/02 06:02:21;;;;;;;3.60;2.13;;;;;;;17.18;73.85;100177.28;5039768;28;20029;-75
2022/09/02 06:04:48;;;;;;;4.00;2.10;;;;;;;17.13;73.55;100167.19;5026923;28;20098;-71
2022/09/02 06:07:15;;;;;;;3.58;2.38;;;;;;;17.11;74.00;100174.97;5032308;28;20065;-72
2022/09/02 06:09:43;;;;;;;6.75;2.50;;;;;;;17.10;73.97;100178.88;5032654;28;20026;-71
2022/09/02 06:12:10;;;;;;;2.42;1.92;;;;;;;17.10;73.54;100174.16;5028958;28;20018;-70
2022/09/02 06:14:36;;;;;;;2.72;1.95;;;;;;;17.09;74.06;100177.25;5010645;28;20065;-73
2022/09/02 06:17:03;;;;;;;3.38;2.17;;;;;;;17.10;74.20;100170.59;5032226;28;20022;-70
2022/09/02 06:19:31;;;;;;;3.90;2.00;;;;;;;17.09;74.34;100168.94;5031310;28;20033;-71
2022/09/02 06:21:58;;;;;;;3.83;2.40;;;;;;;17.10;74.33;100168.63;5033760;28;20033;-72
2022/09/02 06:24:24;;;;;;;5.05;2.00;;;;;;;17.15;73.86;100167.69;5033863;28;20056;-73
2022/09/02 06:26:52;;;;;;;6.63;2.40;;;;;;;17.25;74.16;100169.38;5020281;28;20026;-71
2022/09/02 06:29:19;;;;;;;3.00;2.33;;;;;;;17.28;74.04;100164.00;5032497;28;20052;-72
2022/09/02 06:31:47;;;;;;;5.35;2.00;;;;;;;17.32;73.91;100163.38;5033214;28;20071;-72
2022/09/02 06:34:15;;;;;;;2.55;1.73;;;;;;;17.38;73.24;100162.94;5031643;28;20025;-72
2022/09/02 06:36:42;;;;;;;3.15;2.00;;;;;;;17.44;73.51;100161.66;5041855;28;20053;-72
2022/09/02 06:39:11;;;;;;;4.22;2.35;;;;;;;17.48;72.97;100164.59;5037254;28;20351;-74
2022/09/02 06:41:38;;;;;;;3.60;2.08;;;;;;;17.51;73.03;100169.50;5034957;28;20025;-74
2022/09/02 06:44:05;;;;;;;8.45;2.90;;;;;;;17.56;73.33;100174.06;5041401;28;20360;-74
2022/09/02 06:46:41;;;;;;;5.10;2.08;;;;;;;17.57;73.35;100172.94;5042981;28;20116;-74
2022/09/02 07:18:45;;;;;;;;;;;;;;;;;;;;;
2022/09/02 07:21:20;;;;;;;2.35;1.55;;;;;;;18.63;69.44;100145.13;4974385;28;20591;-73
2022/09/02 07:23:46;;;;;;;6.38;2.03;;;;;;;18.69;69.20;100156.84;4982855;28;20041;-71
2022/09/02 07:33:00;;;;;;;4.05;1.77;;;;;;;18.86;68.68;100147.72;4960815;28;20144;-72
2022/09/02 07:39:35;;;;;;;2.03;1.40;;;;;;;18.97;67.87;100146.22;4957543;28;20128;-73
2022/09/02 07:42:03;;;;;;;4.28;1.85;;;;;;;18.93;67.96;100148.03;5022219;23;20444;-71
2022/09/02 07:44:30;;;;;;;6.70;2.30;;;;;;;18.85;68.24;100143.28;4989010;28;20038;-73
2022/09/02 07:46:58;;;;;;;2.50;1.45;;;;;;;18.84;68.69;100144.44;5011504;28;20036;-72
2022/09/02 07:49:45;;;;;;;4.20;1.30;;;;;;;18.83;68.91;100149.16;4993542;28;20025;-74
2022/09/02 07:52:11;;;;;;;6.68;1.35;;;;;;;18.82;68.82;100146.72;4994481;28;20381;-71
2022/09/02 07:55:23;;;;;;;2.33;0.95;;;;;;;18.86;68.88;100152.44;4975913;28;20038;-72
2022/09/02 08:08:35;;;;;;;3.05;1.38;;;;;;;19.46;67.56;100139.53;5023016;28;20459;-72
2022/09/02 08:11:07;;;;;;;2.95;1.13;;;;;;;19.59;67.42;100143.25;5031955;28;20748;-74
2022/09/02 08:13:35;;;;;;;5.00;1.73;;;;;;;19.63;67.02;100142.25;5033633;28;20045;-73
2022/09/02 08:16:07;;;;;;;2.38;1.10;;;;;;;19.74;66.63;100147.41;5038213;28;20033;-73
2022/09/02 08:18:53;;;;;;;3.97;1.58;;;;;;;19.71;66.50;100121.97;5046566;28;20398;-74
2022/09/02 08:21:24;;;;;;;4.00;1.35;;;;;;;19.90;66.35;100134.59;5036261;28;20025;-72
2022/09/02 08:23:56;;;;;;;4.68;1.40;;;;;;;20.03;65.99;100136.34;5021776;28;20045;-73
2022/09/02 08:26:28;;;;;;;3.25;1.88;;;;;;;20.22;65.45;100135.88;5035436;28;20025;-73
2022/09/02 08:28:55;;;;;;;2.70;1.25;;;;;;;20.42;64.83;100143.72;5033012;28;20039;-71
2022/09/02 08:31:22;;;;;;;2.53;1.27;;;;;;;20.56;64.38;100139.50;5032482;28;20028;-71
2022/09/02 08:33:49;;;;;;;3.70;1.23;;;;;;;20.63;64.34;100138.94;5020359;28;20465;-71
2022/09/02 08:36:52;;;;;;;4.30;1.30;;;;;;;20.70;64.28;100133.66;5019703;28;20448;-72
2022/09/02 08:39:33;;;;;;;3.38;1.20;;;;;;;20.80;63.30;100134.41;4969586;28;20044;-71
2022/09/02 08:42:30;;;;;;;3.13;1.00;;;;;;;20.87;63.54;100131.88;5019198;28;20039;-73
2022/09/02 08:45:19;;;;;;;1.90;0.73;;;;;;;20.99;63.44;100134.69;5031433;28;20591;-72
2022/09/02 08:47:50;;;;;;;1.60;0.80;;;;;;;21.06;63.17;100134.94;5032510;28;20034;-73
2022/09/02 08:50:17;;;;;;;2.40;1.02;;;;;;;21.23;62.14;100139.50;5027868;28;20018;-72
2022/09/02 08:52:52;;;;;;;1.40;0.80;;;;;;;21.46;62.67;100141.81;5023305;28;20427;-74
2022/09/02 08:55:23;;;;;;;3.45;1.20;;;;;;;21.60;61.77;100136.75;5035052;28;20456;-72
2022/09/02 08:57:48;;;;;;;3.58;0.82;;;;;;;21.86;61.60;100137.56;5036027;28;20095;-72
2022/09/02 09:00:14;;;;;;;1.20;0.70;;;;;;;22.23;60.88;100129.16;5044790;28;20017;-72
2022/09/02 09:02:44;;;;;;;1.15;0.70;;;;;;;22.79;58.97;100140.34;5035799;28;20410;-73
2022/09/02 09:05:28;;;;;;;2.15;0.68;;;;;;;23.17;58.16;100133.41;5033181;28;20033;-72
2022/09/02 09:08:13;;;;;;;0.98;0.77;;;;;;;23.50;56.88;100140.63;5036234;28;20070;-71
2022/09/02 09:10:48;;;;;;;2.15;1.00;;;;;;;23.79;56.39;100146.09;5033452;28;20124;-73
2022/09/02 09:13:44;;;;;;;5.00;0.90;;;;;;;23.98;56.15;100142.56;5014754;28;20052;-72
2022/09/02 09:17:01;;;;;;;2.47;0.90;;;;;;;24.21;54.60;100146.28;5034672;28;20057;-75
2022/09/02 09:19:36;;;;;;;2.75;1.15;;;;;;;24.32;54.11;100142.91;4972073;28;20148;-71
2022/09/02 09:22:04;;;;;;;5.70;1.70;;;;;;;24.39;53.34;100152.25;5036221;28;20718;-71
2022/09/02 09:24:44;;;;;;;5.65;1.42;;;;;;;24.44;52.84;100137.16;4998675;28;20044;-72
2022/09/02 09:27:16;;;;;;;2.55;0.85;;;;;;;24.47;52.99;100142.00;5015563;28;20043;-72
2022/09/02 09:29:43;;;;;;;4.35;1.05;;;;;;;24.45;52.62;100149.97;5017205;28;20048;-71
2022/09/02 09:32:22;;;;;;;2.92;0.88;;;;;;;24.32;52.45;100137.31;5017856;28;20021;-72
2022/09/02 09:34:55;;;;;;;5.25;1.35;;;;;;;24.32;52.28;100140.13;5020012;28;20415;-72
2022/09/02 09:37:38;;;;;;;5.35;1.00;;;;;;;24.18;52.22;100138.63;5013595;28;20147;-73
2022/09/02 09:40:27;;;;;;;4.20;1.20;;;;;;;23.92;52.65;100132.84;5033408;28;20014;-73
2022/09/02 09:42:58;;;;;;;2.50;0.93;;;;;;;23.81;52.99;100149.31;5032023;28;20028;-73
2022/09/02 09:45:31;;;;;;;3.10;1.00;;;;;;;23.63;52.35;100140.53;5018666;28;20021;-72
2022/09/02 09:48:15;;;;;;;1.73;0.93;;;;;;;23.49;52.97;100138.19;5012310;28;20068;-72
2022/09/02 09:50:42;;;;;;;2.67;0.67;;;;;;;23.37;53.74;100135.50;5039318;28;20505;-72
2022/09/02 09:53:31;;;;;;;1.65;0.70;;;;;;;23.18;54.02;100129.44;5003445;28;20385;-72
2022/09/02 09:56:05;;;;;;;2.35;1.20;;;;;;;23.00;53.76;100128.16;5021166;28;20363;-72
2022/09/02 09:58:39;;;;;;;0.70;0.40;;;;;;;22.91;54.58;100130.28;5032571;28;20104;-72
2022/09/02 10:01:18;;;;;;;1.15;0.57;;;;;;;22.86;54.57;100127.78;5034957;28;20037;-74
2022/09/02 10:03:56;;;;;;;1.15;0.77;;;;;;;22.78;54.41;100116.44;5037400;28;20031;-73
2022/09/02 10:06:36;;;;;;;0.90;0.77;;;;;;;22.84;53.99;100126.13;5033930;28;20028;-72
2022/09/02 10:09:19;;;;;;;0.73;0.47;;;;;;;22.89;54.33;100127.84;5030944;28;20025;-74
2022/09/02 10:11:57;;;;;;;1.15;0.40;;;;;;;22.98;54.25;100124.91;5037012;28;20026;-73
2022/09/02 10:14:25;;;;;;;1.95;0.68;;;;;;;22.97;54.33;100120.50;5016280;28;20025;-70
2022/09/02 10:17:16;;;;;;;3.15;0.60;;;;;;;22.94;53.87;100121.19;5000447;28;20056;-73
2022/09/02 10:20:06;;;;;;;0.80;0.50;;;;;;;22.89;53.99;100132.63;5015625;28;20022;-71
2022/09/02 10:23:17;;;;;;;2.60;0.77;;;;;;;22.81;54.02;100132.44;5029676;28;20029;-71
2022/09/02 10:26:02;;;;;;;0.43;0.40;;;;;;;22.77;54.62;100125.94;5030151;28;20053;-72
2022/09/02 10:29:20;;;;;;;1.00;0.52;;;;;;;22.90;53.84;100134.25;5013222;28;20033;-72
2022/09/02 10:32:03;;;;;;;2.30;0.68;;;;;;;22.98;54.17;100124.91;4993966;28;20048;-72
2022/09/02 10:35:00;;;;;;;1.00;0.67;;;;;;;23.15;54.05;100124.59;5017463;28;20087;-72
2022/09/02 10:37:40;;;;;;;2.33;0.68;;;;;;;23.32;53.13;100123.44;5015346;28;20333;-75
2022/09/02 10:40:26;;;;;;;3.35;0.80;;;;;;;23.46;52.67;100122.97;5034152;28;20048;-73
2022/09/02 10:43:04;;;;;;;2.72;0.90;;;;;;;23.64;52.81;100117.00;5032258;28;20027;-74
2022/09/02 10:45:34;;;;;;;0.93;0.73;;;;;;;23.88;51.91;100110.44;5032646;28;20033;-73
2022/09/02 10:48:18;;;;;;;1.60;0.75;;;;;;;24.25;51.15;100117.59;5003258;28;20036;-71
2022/09/02 10:51:08;;;;;;;3.53;0.73;;;;;;;24.64;50.52;100106.47;5033195;28;20021;-70
2022/09/02 10:53:43;;;;;;;2.33;0.85;;;;;;;25.02;49.84;100101.97;5015330;28;20041;-70
2022/09/02 10:56:25;;;;;;;3.55;1.17;;;;;;;25.44;48.98;100095.50;5014483;28;20057;-73
2022/09/02 10:59:08;;;;;;;4.10;1.30;;;;;;;25.91;47.99;100111.00;5031375;28;20060;-72
2022/09/02 11:01:42;;;;;;;2.60;1.03;;;;;;;26.32;46.60;100101.19;5029863;28;20117;-72
2022/09/02 11:04:14;;;;;;;2.30;1.20;;;;;;;26.69;46.35;100097.63;5021314;28;20464;-73
2022/09/02 11:06:46;;;;;;;4.22;1.10;;;;;;;26.94;45.04;100092.25;5035494;28;20033;-73
2022/09/02 11:09:19;;;;;;;3.60;1.08;;;;;;;27.36;44.43;100095.88;5034809;28;20044;-72
2022/09/02 11:11:47;;;;;;;4.97;1.27;;;;;;;28.02;43.31;100099.56;5021027;28;20017;-72
2022/09/02 11:14:16;;;;;;;3.53;1.13;;;;;;;28.76;42.66;100096.63;5032439;28;20022;-73
2022/09/02 11:17:43;;;;;;;2.13;1.00;;;;;;;29.91;41.19;100093.84;5020206;28;20029;-73
2022/09/02 11:20:29;;;;;;;1.23;0.70;;;;;;;30.26;39.78;100094.13;4972580;28;20034;-74
2022/09/02 11:22:58;;;;;;;2.72;1.00;;;;;;;30.16;39.37;100089.34;4963785;28;20101;-73
2022/09/02 11:25:31;;;;;;;3.00;1.00;;;;;;;29.99;39.01;100086.16;5019500;28;20041;-73
2022/09/02 11:28:02;;;;;;;6.97;1.08;;;;;;;29.64;39.41;100085.00;5014957;28;20049;-72
2022/09/02 11:30:42;;;;;;;7.18;1.55;;;;;;;29.17;39.26;100087.03;5034166;28;20028;-74
2022/09/02 11:33:27;;;;;;;1.63;0.80;;;;;;;28.92;40.22;100076.56;5021164;28;20032;-73
2022/09/02 11:35:52;;;;;;;3.10;0.95;;;;;;;29.00;39.73;100072.56;5021887;28;20024;-72
2022/09/02 11:38:39;;;;;;;2.42;1.13;;;;;;;29.11;39.85;100074.56;5022675;28;20120;-74
2022/09/02 11:41:42;;;;;;;3.38;1.10;;;;;;;29.11;39.18;100063.31;5020552;28;20045;-73
2022/09/02 11:44:32;;;;;;;5.90;0.90;;;;;;;29.27;39.18;100062.94;5034060;28;20018;-74
2022/09/02 11:47:15;;;;;;;2.08;0.80;;;;;;;29.67;38.59;100058.03;5034129;28;20022;-74
2022/09/02 11:50:09;;;;;;;0.85;0.70;;;;;;;30.31;38.53;100054.22;5017298;28;20125;-73
2022/09/02 11:52:56;;;;;;;;;;;;;;;30.76;36.57;100053.59;5020853;28;20079;-74
2022/09/02 11:55:33;;;;;;;3.45;1.08;;;;;;;31.12;35.99;100059.78;5032283;28;19905;-73
2022/09/02 11:57:59;;;;;;;2.05;0.70;;;;;;;32.32;34.35;100053.72;5020660;28;20029;-73
2022/09/02 12:00:54;;;;;;;1.42;0.73;;;;;;;33.33;32.92;100057.88;5019598;28;20026;-72
2022/09/02 12:03:23;;;;;;;5.47;1.13;;;;;;;34.14;30.81;100047.41;5035268;28;20029;-73
2022/09/02 12:06:02;;;;;;;2.15;0.88;;;;;;;35.11;29.40;100050.91;5035511;28;20028;-72
2022/09/02 12:08:33;;;;;;;4.32;1.02;;;;;;;38.46;25.92;100048.03;5024728;28;20029;-73
2022/09/02 12:11:03;;;;;;;1.92;0.85;;;;;;;43.18;21.33;100045.78;5035908;28;20041;-73
2022/09/02 12:14:00;;;;;;;3.22;0.90;;;;;;;45.71;18.83;100040.97;5037355;28;20029;-74
2022/09/02 12:17:08;;;;;;;2.45;1.08;;;;;;;46.81;17.99;100036.28;5037524;28;20033;-73
2022/09/02 12:19:37;;;;;;;2.45;0.80;;;;;;;48.39;14.96;100025.91;5026922;28;20132;-73
2022/09/02 12:22:15;;;;;;;2.22;0.90;;;;;;;49.01;13.54;100013.69;5018506;28;20060;-73
2022/09/02 12:25:25;;;;;;;2.25;0.80;;;;;;;46.71;14.88;100014.75;5015095;28;20384;-74
2022/09/02 12:28:13;;;;;;;2.20;0.85;;;;;;;42.93;17.46;100006.97;5014633;28;20442;-73
2022/09/02 12:31:00;;;;;;;3.55;1.00;;;;;;;41.31;19.01;99999.50;5019312;28;20030;-72
2022/09/02 12:33:40;;;;;;;6.22;1.50;;;;;;;41.14;18.94;99989.78;5036553;28;20029;-77
2022/09/02 12:36:07;;;;;;;2.28;0.98;;;;;;;42.46;17.99;100003.94;5019003;28;20029;-73
2022/09/02 12:38:35;;;;;;;1.60;0.88;;;;;;;43.46;16.94;99987.81;5034507;28;20025;-72
2022/09/02 12:41:03;;;;;;;1.42;0.65;;;;;;;44.74;16.81;99996.50;5018890;28;20058;-72